createdAt,value
2022-10-23T00:00:31.482Z,27.5
2022-10-23T00:01:34.385Z,27.3
2022-10-23T00:02:36.906Z,27.7
2022-10-23T00:03:39.770Z,27.7
2022-10-23T00:04:42.240Z,27.8
2022-10-23T00:05:44.449Z,27.3
2022-10-23T00:06:46.364Z,27.6
2022-10-23T00:07:48.876Z,27.8
2022-10-23T00:08:51.380Z,27.6
2022-10-23T00:09:53.577Z,27.3
2022-10-23T00:10:56.039Z,27.6
2022-10-23T00:11:57.963Z,28.1
2022-10-23T00:13:00.437Z,27.2
2022-10-23T00:14:02.920Z,27.5
2022-10-23T00:15:04.836Z,27.9
2022-10-23T00:16:07.323Z,27.6
2022-10-23T00:17:10.238Z,27.2
2022-10-23T00:18:12.406Z,27.5
2022-10-23T00:19:14.876Z,27.9
2022-10-23T00:20:17.082Z,27.5
2022-10-23T00:21:19.297Z,27.6
2022-10-23T00:22:21.783Z,27.7
2022-10-23T00:23:24.253Z,27.5
2022-10-23T00:24:26.750Z,28
2022-10-23T00:25:28.943Z,27.7
2022-10-23T00:26:31.416Z,27.6
2022-10-23T00:27:33.616Z,27.5
2022-10-23T00:28:36.084Z,27.8
2022-10-23T00:29:38.281Z,27.7
2022-10-23T00:30:40.780Z,27.6
2022-10-23T00:31:42.978Z,27.7
2022-10-23T00:32:45.218Z,27.4
2022-10-23T00:33:47.408Z,27.8
2022-10-23T00:34:49.897Z,27.4
2022-10-23T00:35:52.368Z,27.7
2022-10-23T00:36:54.578Z,28
2022-10-23T00:37:57.051Z,28.3
2022-10-23T00:38:59.522Z,27.9
2022-10-23T00:40:02.026Z,27.6
2022-10-23T00:41:04.497Z,27.7
2022-10-23T00:42:06.714Z,27.8
2022-10-23T00:43:09.186Z,27.6
2022-10-23T00:44:11.667Z,27.7
2022-10-23T00:45:14.138Z,27.9
2022-10-23T00:46:16.309Z,27.7
2022-10-23T00:47:18.773Z,28.1
2022-10-23T00:48:21.035Z,27.6
2022-10-23T00:49:23.511Z,28.2
2022-10-23T00:50:25.450Z,27.6
2022-10-23T00:51:27.941Z,27.6
2022-10-23T00:52:30.440Z,27.7
2022-10-23T00:53:32.918Z,27.7
2022-10-23T00:54:35.098Z,28
2022-10-23T00:55:37.598Z,27.8
2022-10-23T00:56:39.809Z,27.6
2022-10-23T00:57:42.002Z,27.8
2022-10-23T00:58:44.200Z,27.7
2022-10-23T00:59:46.668Z,28.1
2022-10-23T01:00:48.841Z,28
2022-10-23T01:01:50.857Z,28.1
2022-10-23T01:02:54.195Z,27.7
2022-10-23T01:03:56.697Z,27.3
2022-10-23T01:04:59.165Z,27.8
2022-10-23T01:06:01.102Z,27.8
2022-10-23T01:07:03.600Z,28.3
2022-10-23T01:08:05.817Z,27.9
2022-10-23T01:09:08.294Z,27.7
2022-10-23T01:10:10.772Z,28
2022-10-23T01:11:13.262Z,27.8
2022-10-23T01:12:15.200Z,27.8
2022-10-23T01:13:17.393Z,27.7
2022-10-23T01:14:19.862Z,27.8
2022-10-23T01:15:21.787Z,27.8
2022-10-23T01:16:24.255Z,27.9
2022-10-23T01:17:26.732Z,27.7
2022-10-23T01:18:29.205Z,27.7
2022-10-23T01:19:31.717Z,27.7
2022-10-23T01:20:33.899Z,27.6
2022-10-23T01:21:35.844Z,27.8
2022-10-23T01:22:38.322Z,27.8
2022-10-23T01:23:42.076Z,27.9
2022-10-23T01:24:44.550Z,28
2022-10-23T01:25:46.737Z,27.7
2022-10-23T01:26:48.966Z,28.2
2022-10-23T01:27:51.436Z,27.8
2022-10-23T01:28:53.912Z,27.9
2022-10-23T01:29:56.103Z,27.4
2022-10-23T01:30:58.583Z,27.9
2022-10-23T01:32:00.476Z,27.7
2022-10-23T01:33:02.947Z,27.9
2022-10-23T01:34:05.139Z,27.9
2022-10-23T01:35:07.661Z,27.6
2022-10-23T01:36:10.129Z,27.9
2022-10-23T01:37:12.328Z,28.3
2022-10-23T01:38:14.528Z,27.7
2022-10-23T01:39:17.049Z,27.8
2022-10-23T01:40:19.536Z,28
2022-10-23T01:41:22.008Z,27.8
2022-10-23T01:42:24.503Z,27.8
2022-10-23T01:43:26.974Z,28
2022-10-23T01:44:29.455Z,28.1
2022-10-23T01:45:31.390Z,28.2
2022-10-23T01:46:33.848Z,27.8
2022-10-23T01:47:35.762Z,28
2022-10-23T01:48:37.676Z,27.7
2022-10-23T01:49:39.986Z,28.1
2022-10-23T01:50:42.518Z,28.2
2022-10-23T01:51:44.718Z,27.9
2022-10-23T01:52:46.915Z,27.8
2022-10-23T01:53:49.121Z,28.1
2022-10-23T01:54:51.628Z,28.2
2022-10-23T01:55:53.576Z,28
2022-10-23T01:56:55.752Z,27.8
2022-10-23T01:57:58.242Z,27.8
2022-10-23T01:59:00.712Z,28
2022-10-23T02:00:02.912Z,27.8
2022-10-23T02:01:05.409Z,27.9
2022-10-23T02:02:08.062Z,28.1
2022-10-23T02:03:11.181Z,27.6
2022-10-23T02:04:13.363Z,27.8
2022-10-23T02:05:15.546Z,27.8
2022-10-23T02:06:17.510Z,28
2022-10-23T02:07:19.693Z,27.7
2022-10-23T02:08:21.595Z,28.1
2022-10-23T02:09:24.065Z,28.2
2022-10-23T02:10:26.583Z,27.4
2022-10-23T02:11:28.752Z,27.9
2022-10-23T02:12:30.967Z,27.6
2022-10-23T02:13:33.498Z,27.8
2022-10-23T02:14:36.073Z,28
2022-10-23T02:15:38.542Z,27.8
2022-10-23T02:16:40.743Z,27.9
2022-10-23T02:17:43.119Z,27.9
2022-10-23T02:18:46.818Z,28.1
2022-10-23T02:19:48.740Z,28.3
2022-10-23T02:20:51.218Z,28.2
2022-10-23T02:21:53.725Z,28
2022-10-23T02:22:56.204Z,28
2022-10-23T02:23:58.408Z,28.2
2022-10-23T02:25:00.608Z,28.1
2022-10-23T02:26:02.837Z,27.8
2022-10-23T02:27:05.325Z,28.3
2022-10-23T02:28:07.809Z,27.8
2022-10-23T02:29:10.049Z,27.9
2022-10-23T02:30:12.244Z,28
2022-10-23T02:31:14.452Z,27.8
2022-10-23T02:32:16.921Z,28.1
2022-10-23T02:33:19.108Z,27.9
2022-10-23T02:34:21.579Z,28.1
2022-10-23T02:35:23.766Z,27.8
2022-10-23T02:36:25.684Z,27.8
2022-10-23T02:37:28.192Z,27.9
2022-10-23T02:38:30.660Z,27.6
2022-10-23T02:39:33.134Z,27.8
2022-10-23T02:40:35.317Z,27.8
2022-10-23T02:41:37.529Z,27.9
2022-10-23T02:42:39.447Z,27.8
2022-10-23T02:43:41.917Z,28.1
2022-10-23T02:44:44.134Z,27.9
2022-10-23T02:45:46.611Z,28.5
2022-10-23T02:46:48.807Z,28.2
2022-10-23T02:47:51.016Z,28.1
2022-10-23T02:48:53.217Z,27.9
2022-10-23T02:49:55.680Z,27.6
2022-10-23T02:50:58.146Z,28.2
2022-10-23T02:52:00.341Z,28.1
2022-10-23T02:53:02.584Z,27.6
2022-10-23T02:54:05.039Z,28.2
2022-10-23T02:55:06.960Z,27.7
2022-10-23T02:56:09.147Z,28.3
2022-10-23T02:57:11.403Z,28.4
2022-10-23T02:58:13.576Z,27.8
2022-10-23T02:59:15.796Z,27.6
2022-10-23T03:00:18.002Z,28.1
2022-10-23T03:01:20.552Z,28.6
2022-10-23T03:02:23.711Z,27.8
2022-10-23T03:03:28.207Z,28.5
2022-10-23T03:04:30.879Z,28.2
2022-10-23T03:05:33.079Z,27.4
2022-10-23T03:06:35.667Z,27.8
2022-10-23T03:07:38.140Z,27.7
2022-10-23T03:08:41.471Z,27.9
2022-10-23T03:09:43.939Z,27.8
2022-10-23T03:10:46.421Z,27.7
2022-10-23T03:11:50.048Z,27.9
2022-10-23T03:12:51.986Z,27.7
2022-10-23T03:13:54.183Z,27.6
2022-10-23T03:14:56.665Z,27.7
2022-10-23T03:15:58.879Z,27.6
2022-10-23T03:17:01.077Z,27.8
2022-10-23T03:18:03.543Z,27.6
2022-10-23T03:19:05.776Z,27.4
2022-10-23T03:20:08.279Z,27.6
2022-10-23T03:21:11.114Z,27.7
2022-10-23T03:22:13.300Z,27.5
2022-10-23T03:23:15.769Z,27.6
2022-10-23T03:24:18.277Z,27.7
2022-10-23T03:25:20.743Z,27.5
2022-10-23T03:26:23.207Z,27.5
2022-10-23T03:27:25.721Z,27.6
2022-10-23T03:28:29.069Z,27.5
2022-10-23T03:29:31.248Z,27.4
2022-10-23T03:30:33.447Z,27.7
2022-10-23T03:31:35.942Z,27.5
2022-10-23T03:32:38.466Z,27.4
2022-10-23T03:33:40.585Z,27.5
2022-10-23T03:34:43.043Z,27.5
2022-10-23T03:35:45.371Z,27.5
2022-10-23T03:36:48.619Z,27.5
2022-10-23T03:37:51.091Z,27.5
2022-10-23T03:38:53.556Z,27.5
2022-10-23T03:39:55.774Z,27.4
2022-10-23T03:40:58.234Z,27.5
2022-10-23T03:42:00.437Z,27.4
2022-10-23T03:43:02.330Z,27.3
2022-10-23T03:45:07.197Z,27.4
2022-10-23T03:46:09.675Z,27.4
2022-10-23T03:47:12.181Z,27.3
2022-10-23T03:48:14.379Z,27.4
2022-10-23T03:49:16.839Z,27.4
2022-10-23T03:50:18.760Z,27.2
2022-10-23T03:51:20.957Z,27.2
2022-10-23T03:53:26.659Z,27.3
2022-10-23T03:54:29.135Z,27.1
2022-10-23T03:55:31.649Z,27.4
2022-10-23T03:56:34.121Z,27.3
2022-10-23T03:57:36.604Z,27.3
2022-10-23T03:58:39.075Z,27.3
2022-10-23T03:59:41.313Z,27.2
2022-10-23T04:01:45.958Z,27.3
2022-10-23T04:02:49.325Z,27.3
2022-10-23T04:03:51.597Z,27.3
2022-10-23T04:04:54.066Z,27.2
2022-10-23T04:05:56.257Z,27.2
2022-10-23T04:06:58.451Z,27.2
2022-10-23T04:08:01.320Z,27.2
2022-10-23T04:09:03.570Z,27.1
2022-10-23T04:10:06.318Z,27.2
2022-10-23T04:11:08.574Z,27.2
2022-10-23T04:12:11.064Z,27.2
2022-10-23T04:13:13.270Z,27.2
2022-10-23T04:14:15.471Z,27.1
2022-10-23T04:15:17.990Z,27.2
2022-10-23T04:16:20.187Z,27.1
2022-10-23T04:17:22.742Z,27.3
2022-10-23T04:18:25.313Z,27.3
2022-10-23T04:19:27.506Z,27.2
2022-10-23T04:20:29.706Z,27
2022-10-23T04:21:32.173Z,27.1
2022-10-23T04:22:34.656Z,27.1
2022-10-23T04:23:36.852Z,27.4
2022-10-23T04:24:39.325Z,27.2
2022-10-23T04:25:41.831Z,27.2
2022-10-23T04:26:44.577Z,27.2
2022-10-23T04:27:47.048Z,27.1
2022-10-23T04:28:49.255Z,27.2
2022-10-23T04:29:53.220Z,27.1
2022-10-23T04:30:56.713Z,27.2
2022-10-23T04:31:58.926Z,27.4
2022-10-23T04:33:01.168Z,27.1
2022-10-23T04:34:03.659Z,27.2
2022-10-23T04:35:07.221Z,27.1
2022-10-23T04:36:09.695Z,27.3
2022-10-23T04:37:12.168Z,27.2
2022-10-23T04:38:14.637Z,27.3
2022-10-23T04:39:17.137Z,27.3
2022-10-23T04:40:19.325Z,27.3
2022-10-23T04:41:20.973Z,27.2
2022-10-23T04:42:23.533Z,27.3
2022-10-23T04:43:26.198Z,27.2
2022-10-23T04:44:28.388Z,27.2
2022-10-23T04:45:30.589Z,27.1
2022-10-23T04:46:32.781Z,27.2
2022-10-23T04:47:35.287Z,27.1
2022-10-23T04:48:37.748Z,27.2
2022-10-23T04:49:40.244Z,27.1
2022-10-23T04:50:42.445Z,27.1
2022-10-23T04:51:49.223Z,27.2
2022-10-23T04:52:51.698Z,27.3
2022-10-23T04:53:53.889Z,27.3
2022-10-23T04:54:55.804Z,27.2
2022-10-23T04:55:57.975Z,27.1
2022-10-23T04:57:00.451Z,27
2022-10-23T04:58:02.966Z,27.3
2022-10-23T05:00:08.106Z,27.2
2022-10-23T05:01:10.104Z,27.1
2022-10-23T05:02:13.144Z,27.1
2022-10-23T05:03:15.655Z,27.2
2022-10-23T05:04:18.122Z,27.2
2022-10-23T05:05:20.346Z,27.3
2022-10-23T05:06:22.854Z,27.1
2022-10-23T05:07:24.779Z,27.2
2022-10-23T05:08:26.971Z,27.2
2022-10-23T05:09:29.157Z,27
2022-10-23T05:10:30.790Z,27.1
2022-10-23T05:11:33.264Z,27.1
2022-10-23T05:12:35.731Z,27.1
2022-10-23T05:13:38.258Z,27.2
2022-10-23T05:14:40.517Z,27.2
2022-10-23T05:16:45.526Z,27.2
2022-10-23T05:17:47.740Z,27.1
2022-10-23T05:18:50.253Z,27.1
2022-10-23T05:19:52.445Z,27.1
2022-10-23T05:20:54.657Z,27.1
2022-10-23T05:21:57.125Z,27.1
2022-10-23T05:22:59.335Z,27.1
2022-10-23T05:24:01.883Z,27
2022-10-23T05:25:04.319Z,27.2
2022-10-23T05:26:06.949Z,27
2022-10-23T05:27:09.148Z,27
2022-10-23T05:28:11.615Z,27
2022-10-23T05:29:14.131Z,27.2
2022-10-23T05:30:16.606Z,27.1
2022-10-23T05:31:18.800Z,27.1
2022-10-23T05:33:23.556Z,27
2022-10-23T05:34:26.053Z,27.2
2022-10-23T05:35:28.525Z,27.2
2022-10-23T05:36:31.009Z,26.9
2022-10-23T05:37:33.486Z,27.2
2022-10-23T05:38:35.672Z,27
2022-10-23T05:39:37.885Z,27.2
2022-10-23T05:40:40.107Z,27.2
2022-10-23T05:41:42.414Z,27
2022-10-23T05:42:45.022Z,27.1
2022-10-23T05:43:49.720Z,27.2
2022-10-23T05:44:52.314Z,27.1
2022-10-23T05:45:54.238Z,27
2022-10-23T05:46:56.444Z,27.2
2022-10-23T05:48:05.635Z,27.1
2022-10-23T05:49:03.631Z,27
2022-10-23T05:50:05.857Z,27.1
2022-10-23T05:51:08.053Z,27
2022-10-23T05:52:10.272Z,27.2
2022-10-23T05:53:12.467Z,27.1
2022-10-23T05:54:14.931Z,27.2
2022-10-23T05:55:16.847Z,27.1
2022-10-23T05:56:19.318Z,27.1
2022-10-23T05:57:21.794Z,27
2022-10-23T05:58:24.269Z,27.1
2022-10-23T05:59:26.741Z,27
2022-10-23T06:00:29.081Z,27.1
2022-10-23T06:01:31.878Z,27.1
2022-10-23T06:02:34.559Z,27.1
2022-10-23T06:03:37.478Z,27.1
2022-10-23T06:04:39.684Z,27
2022-10-23T06:05:42.230Z,26.9
2022-10-23T06:06:44.436Z,27
2022-10-23T06:07:47.093Z,27
2022-10-23T06:08:48.752Z,27
2022-10-23T06:09:50.663Z,27
2022-10-23T06:10:52.576Z,27
2022-10-23T06:11:54.765Z,27.2
2022-10-23T06:12:57.233Z,27
2022-10-23T06:13:59.711Z,27.1
2022-10-23T06:15:02.289Z,27.1
2022-10-23T06:16:08.433Z,27.1
2022-10-23T06:17:09.779Z,27
2022-10-23T06:18:11.957Z,27.1
2022-10-23T06:19:14.153Z,27
2022-10-23T06:20:16.326Z,27
2022-10-23T06:21:18.850Z,27
2022-10-23T06:22:21.327Z,27.1
2022-10-23T06:23:23.817Z,27.1
2022-10-23T06:24:25.484Z,27.1
2022-10-23T06:25:27.663Z,27
2022-10-23T06:26:29.854Z,27.1
2022-10-23T06:27:32.368Z,26.9
2022-10-23T06:28:34.298Z,27
2022-10-23T06:29:36.776Z,27
2022-10-23T06:31:41.242Z,26.9
2022-10-23T06:32:43.733Z,27.1
2022-10-23T06:33:47.532Z,26.9
2022-10-23T06:34:49.730Z,27
2022-10-23T06:35:51.929Z,27.1
2022-10-23T06:36:54.175Z,26.9
2022-10-23T06:37:56.647Z,27.1
2022-10-23T06:40:02.650Z,26.9
2022-10-23T06:41:05.117Z,26.9
2022-10-23T06:42:07.598Z,26.8
2022-10-23T06:43:09.800Z,27
2022-10-23T06:44:12.076Z,27.1
2022-10-23T06:45:13.990Z,26.9
2022-10-23T06:46:16.180Z,26.9
2022-10-23T06:47:18.713Z,27.1
2022-10-23T06:48:21.188Z,26.9
2022-10-23T06:49:23.659Z,27
2022-10-23T06:50:26.143Z,27
2022-10-23T06:51:28.479Z,27
2022-10-23T06:52:47.586Z,27
2022-10-23T06:53:35.987Z,27
2022-10-23T06:54:38.196Z,26.9
2022-10-23T06:55:40.201Z,26.9
2022-10-23T06:56:42.498Z,27
2022-10-23T06:57:45.080Z,27
2022-10-23T06:58:48.765Z,27
2022-10-23T06:59:51.242Z,27.1
2022-10-23T07:00:53.806Z,27.1
2022-10-23T07:01:56.720Z,27
2022-10-23T07:02:59.238Z,27.2
2022-10-23T07:04:01.435Z,26.9
2022-10-23T07:05:03.639Z,27
2022-10-23T07:06:11.451Z,27.1
2022-10-23T07:07:13.646Z,26.9
2022-10-23T07:08:16.173Z,27
2022-10-23T07:09:18.089Z,26.9
2022-10-23T07:10:20.582Z,27
2022-10-23T07:11:23.061Z,26.9
2022-10-23T07:12:25.267Z,27.1
2022-10-23T07:13:27.462Z,27
2022-10-23T07:14:29.942Z,27.1
2022-10-23T07:15:31.845Z,27
2022-10-23T07:16:34.322Z,27
2022-10-23T07:17:36.254Z,27
2022-10-23T07:18:38.484Z,27
2022-10-23T07:19:40.955Z,26.9
2022-10-23T07:20:43.145Z,26.8
2022-10-23T07:21:45.050Z,27
2022-10-23T07:22:47.531Z,26.9
2022-10-23T07:23:50.040Z,27
2022-10-23T07:24:52.541Z,27
2022-10-23T07:25:55.028Z,26.9
2022-10-23T07:26:57.528Z,26.9
2022-10-23T07:27:59.721Z,27
2022-10-23T07:29:01.927Z,26.9
2022-10-23T07:30:04.406Z,26.9
2022-10-23T07:31:06.884Z,27.1
2022-10-23T07:32:09.071Z,26.8
2022-10-23T07:33:11.702Z,27
2022-10-23T07:34:13.939Z,26.8
2022-10-23T07:35:16.414Z,27
2022-10-23T07:36:18.355Z,27.1
2022-10-23T07:37:20.856Z,26.8
2022-10-23T07:38:23.325Z,26.7
2022-10-23T07:39:25.842Z,27
2022-10-23T07:40:27.763Z,26.9
2022-10-23T07:41:30.274Z,27
2022-10-23T07:42:32.469Z,26.9
2022-10-23T07:43:34.656Z,26.9
2022-10-23T07:44:37.123Z,27.1
2022-10-23T07:45:39.301Z,26.8
2022-10-23T07:46:41.491Z,26.9
2022-10-23T07:47:44.228Z,26.9
2022-10-23T07:48:47.721Z,26.9
2022-10-23T07:49:49.938Z,27
2022-10-23T07:50:52.195Z,27
2022-10-23T07:51:54.515Z,27
2022-10-23T07:52:56.908Z,26.9
2022-10-23T07:53:59.376Z,27.1
2022-10-23T07:55:01.884Z,26.9
2022-10-23T07:56:04.092Z,26.8
2022-10-23T07:57:06.595Z,26.9
2022-10-23T07:58:09.066Z,26.8
2022-10-23T07:59:11.541Z,27
2022-10-23T08:00:13.517Z,26.8
2022-10-23T08:01:16.078Z,26.9
2022-10-23T08:02:18.940Z,27.1
2022-10-23T08:03:21.463Z,26.8
2022-10-23T08:04:23.679Z,26.9
2022-10-23T08:05:26.200Z,27.1
2022-10-23T08:06:28.400Z,27
2022-10-23T08:07:30.620Z,27.1
2022-10-23T08:08:33.106Z,26.8
2022-10-23T08:09:35.380Z,26.8
2022-10-23T08:10:37.606Z,26.9
2022-10-23T08:11:40.075Z,26.8
2022-10-23T08:12:42.869Z,26.8
2022-10-23T08:13:46.706Z,26.9
2022-10-23T08:14:48.898Z,26.8
2022-10-23T08:15:51.120Z,26.9
2022-10-23T08:16:53.657Z,26.8
2022-10-23T08:17:56.135Z,26.9
2022-10-23T08:18:58.614Z,26.8
2022-10-23T08:20:01.089Z,27
2022-10-23T08:21:03.590Z,26.8
2022-10-23T08:22:05.766Z,26.7
2022-10-23T08:23:07.957Z,26.9
2022-10-23T08:24:09.893Z,26.8
2022-10-23T08:25:12.431Z,26.9
2022-10-23T08:26:15.331Z,26.7
2022-10-23T08:27:17.523Z,26.7
2022-10-23T08:28:19.753Z,27
2022-10-23T08:29:22.233Z,26.8
2022-10-23T08:30:24.707Z,27
2022-10-23T08:31:27.168Z,26.9
2022-10-23T08:32:29.662Z,26.8
2022-10-23T08:33:31.572Z,26.9
2022-10-23T08:34:33.217Z,26.9
2022-10-23T08:35:35.687Z,27
2022-10-23T08:36:37.939Z,26.9
2022-10-23T08:37:40.566Z,26.8
2022-10-23T08:38:44.673Z,26.9
2022-10-23T08:39:49.084Z,26.8
2022-10-23T08:40:52.150Z,26.8
2022-10-23T08:41:54.083Z,26.8
2022-10-23T08:42:56.567Z,26.7
2022-10-23T08:43:59.088Z,26.7
2022-10-23T08:45:01.565Z,26.8
2022-10-23T08:46:05.091Z,26.9
2022-10-23T08:47:09.031Z,27
2022-10-23T08:48:11.497Z,27
2022-10-23T08:49:13.981Z,26.9
2022-10-23T08:50:16.211Z,26.8
2022-10-23T08:51:18.714Z,26.8
2022-10-23T08:52:21.223Z,26.9
2022-10-23T08:53:23.694Z,26.8
2022-10-23T08:54:26.171Z,26.9
2022-10-23T08:55:28.652Z,26.9
2022-10-23T08:56:31.130Z,26.8
2022-10-23T08:57:33.383Z,27
2022-10-23T08:58:39.878Z,26.9
2022-10-23T08:59:42.711Z,27
2022-10-23T09:00:45.023Z,26.9
2022-10-23T09:01:47.236Z,26.8
2022-10-23T09:02:50.408Z,27
2022-10-23T09:03:52.597Z,26.9
2022-10-23T09:04:54.795Z,26.8
2022-10-23T09:05:57.274Z,26.9
2022-10-23T09:06:59.820Z,26.8
2022-10-23T09:08:02.661Z,26.9
2022-10-23T09:09:04.838Z,26.9
2022-10-23T09:10:07.033Z,26.9
2022-10-23T09:11:09.251Z,26.8
2022-10-23T09:12:11.459Z,26.8
2022-10-23T09:13:13.998Z,26.9
2022-10-23T09:14:16.473Z,26.8
2022-10-23T09:15:18.692Z,26.9
2022-10-23T09:16:21.166Z,26.9
2022-10-23T09:17:23.660Z,26.9
2022-10-23T09:18:25.585Z,26.9
2022-10-23T09:19:27.790Z,26.9
2022-10-23T09:20:30.255Z,26.8
2022-10-23T09:21:32.440Z,26.9
2022-10-23T09:22:34.912Z,26.8
2022-10-23T09:23:37.164Z,26.9
2022-10-23T09:24:40.185Z,26.8
2022-10-23T09:25:42.432Z,26.8
2022-10-23T09:26:44.897Z,27
2022-10-23T09:27:47.929Z,26.8
2022-10-23T09:28:52.081Z,26.9
2022-10-23T09:29:54.317Z,26.9
2022-10-23T09:30:56.812Z,26.9
2022-10-23T09:31:59.045Z,26.8
2022-10-23T09:33:01.265Z,26.9
2022-10-23T09:34:04.291Z,26.8
2022-10-23T09:35:10.385Z,26.9
2022-10-23T09:36:12.863Z,27
2022-10-23T09:37:15.359Z,26.8
2022-10-23T09:38:17.831Z,27
2022-10-23T09:39:20.358Z,27
2022-10-23T09:40:22.537Z,26.8
2022-10-23T09:41:24.190Z,26.8
2022-10-23T09:42:26.098Z,26.9
2022-10-23T09:43:28.578Z,26.7
2022-10-23T09:44:30.496Z,26.8
2022-10-23T09:45:32.747Z,26.9
2022-10-23T09:46:35.260Z,26.9
2022-10-23T09:47:37.922Z,26.9
2022-10-23T09:48:40.614Z,26.8
2022-10-23T09:49:42.553Z,26.8
2022-10-23T09:50:45.025Z,26.9
2022-10-23T09:51:47.321Z,27
2022-10-23T09:52:49.231Z,26.8
2022-10-23T09:53:51.157Z,27
2022-10-23T09:54:53.370Z,26.8
2022-10-23T09:55:55.271Z,26.9
2022-10-23T09:56:57.454Z,26.7
2022-10-23T09:57:59.373Z,27
2022-10-23T09:59:01.591Z,26.8
2022-10-23T10:00:04.093Z,26.9
2022-10-23T10:01:06.455Z,26.7
2022-10-23T10:02:09.671Z,26.8
2022-10-23T10:03:12.919Z,26.9
2022-10-23T10:04:15.434Z,26.8
2022-10-23T10:05:17.604Z,26.7
2022-10-23T10:06:19.813Z,26.9
2022-10-23T10:07:21.992Z,26.7
2022-10-23T10:08:24.214Z,26.8
2022-10-23T10:09:26.407Z,26.8
2022-10-23T10:10:28.939Z,27
2022-10-23T10:11:31.409Z,26.9
2022-10-23T10:12:33.628Z,26.8
2022-10-23T10:13:36.100Z,26.9
2022-10-23T10:14:38.282Z,26.8
2022-10-23T10:15:40.480Z,26.9
2022-10-23T10:16:42.761Z,26.8
2022-10-23T10:17:45.503Z,26.9
2022-10-23T10:18:48.384Z,26.8
2022-10-23T10:19:50.573Z,26.8
2022-10-23T10:20:53.060Z,26.8
2022-10-23T10:21:54.984Z,26.8
2022-10-23T10:22:57.481Z,26.8
2022-10-23T10:23:59.531Z,26.9
2022-10-23T10:25:01.171Z,26.9
2022-10-23T10:26:02.844Z,26.6
2022-10-23T10:27:05.041Z,26.9
2022-10-23T10:28:07.235Z,26.7
2022-10-23T10:29:09.429Z,26.8
2022-10-23T10:30:11.346Z,26.9
2022-10-23T10:31:13.842Z,26.8
2022-10-23T10:32:16.354Z,26.9
2022-10-23T10:33:18.842Z,26.9
2022-10-23T10:34:21.035Z,26.8
2022-10-23T10:35:22.960Z,26.8
2022-10-23T10:37:27.967Z,26.9
2022-10-23T10:38:30.447Z,26.9
2022-10-23T10:39:32.369Z,26.8
2022-10-23T10:40:34.292Z,26.7
2022-10-23T10:41:36.512Z,26.9
2022-10-23T10:42:38.980Z,26.6
2022-10-23T10:43:41.169Z,26.8
2022-10-23T10:44:43.372Z,27
2022-10-23T10:45:45.862Z,26.7
2022-10-23T10:46:48.065Z,26.9
2022-10-23T10:47:50.578Z,26.7
2022-10-23T10:48:52.531Z,26.6
2022-10-23T10:49:55.006Z,27
2022-10-23T10:50:57.483Z,26.7
2022-10-23T10:51:59.380Z,26.9
2022-10-23T10:53:01.871Z,26.8
2022-10-23T10:54:04.372Z,26.8
2022-10-23T10:55:06.308Z,26.9
2022-10-23T10:57:12.420Z,26.7
2022-10-23T10:58:14.606Z,26.7
2022-10-23T10:59:16.522Z,26.9
2022-10-23T11:00:18.713Z,26.7
2022-10-23T11:01:21.323Z,26.8
2022-10-23T11:02:24.252Z,26.8
2022-10-23T11:03:26.921Z,26.9
2022-10-23T11:04:29.563Z,26.7
2022-10-23T11:05:31.769Z,26.7
2022-10-23T11:06:34.247Z,26.8
2022-10-23T11:07:36.741Z,26.7
2022-10-23T11:08:44.322Z,26.8
2022-10-23T11:09:43.637Z,26.8
2022-10-23T11:10:45.839Z,26.7
2022-10-23T11:11:48.036Z,26.8
2022-10-23T11:12:50.595Z,26.9
2022-10-23T11:13:53.177Z,26.8
2022-10-23T11:14:55.372Z,26.8
2022-10-23T11:15:57.570Z,26.9
2022-10-23T11:17:00.090Z,26.7
2022-10-23T11:18:02.277Z,26.9
2022-10-23T11:19:06.677Z,26.8
2022-10-23T11:20:09.802Z,26.8
2022-10-23T11:21:12.043Z,26.7
2022-10-23T11:22:14.523Z,26.6
2022-10-23T11:23:16.986Z,26.9
2022-10-23T11:24:19.162Z,26.8
2022-10-23T11:25:21.644Z,26.7
2022-10-23T11:26:23.548Z,26.7
2022-10-23T11:27:25.758Z,26.7
2022-10-23T11:28:28.287Z,26.7
2022-10-23T11:29:30.475Z,26.7
2022-10-23T11:30:32.663Z,26.8
2022-10-23T11:31:34.853Z,26.8
2022-10-23T11:32:37.090Z,26.9
2022-10-23T11:33:40.356Z,26.8
2022-10-23T11:34:44.549Z,26.9
2022-10-23T11:35:47.116Z,27
2022-10-23T11:36:49.609Z,26.8
2022-10-23T11:37:51.230Z,26.7
2022-10-23T11:38:53.169Z,27
2022-10-23T11:39:55.361Z,26.8
2022-10-23T11:40:57.836Z,26.7
2022-10-23T11:42:00.308Z,26.8
2022-10-23T11:43:02.779Z,27
2022-10-23T11:44:05.288Z,26.8
2022-10-23T11:45:07.480Z,26.8
2022-10-23T11:46:09.970Z,26.9
2022-10-23T11:47:12.162Z,26.9
2022-10-23T11:48:14.641Z,26.9
2022-10-23T11:49:17.125Z,26.9
2022-10-23T11:50:19.787Z,26.9
2022-10-23T11:51:22.308Z,26.9
2022-10-23T11:52:24.266Z,26.8
2022-10-23T11:53:26.466Z,27
2022-10-23T11:54:28.660Z,26.9
2022-10-23T11:55:30.568Z,26.8
2022-10-23T11:56:33.040Z,27
2022-10-23T11:57:35.519Z,26.7
2022-10-23T11:58:37.715Z,26.9
2022-10-23T11:59:40.238Z,26.8
2022-10-23T12:00:42.701Z,26.9
2022-10-23T12:01:45.465Z,26.8
2022-10-23T12:02:48.710Z,26.8
2022-10-23T12:03:56.167Z,26.8
2022-10-23T12:04:58.645Z,26.9
2022-10-23T12:06:00.828Z,26.9
2022-10-23T12:07:03.358Z,26.8
2022-10-23T12:08:05.858Z,26.9
2022-10-23T12:09:08.348Z,26.8
2022-10-23T12:10:10.629Z,26.9
2022-10-23T12:11:13.288Z,27
2022-10-23T12:12:15.786Z,26.7
2022-10-23T12:13:18.053Z,26.8
2022-10-23T12:14:19.989Z,26.7
2022-10-23T12:15:22.518Z,26.7
2022-10-23T12:16:25.037Z,26.8
2022-10-23T12:17:27.510Z,26.7
2022-10-23T12:18:29.743Z,26.8
2022-10-23T12:19:31.951Z,26.7
2022-10-23T12:20:34.432Z,26.9
2022-10-23T12:21:36.628Z,26.8
2022-10-23T12:22:38.873Z,26.8
2022-10-23T12:23:42.105Z,26.9
2022-10-23T12:24:46.124Z,26.9
2022-10-23T12:25:48.629Z,26.8
2022-10-23T12:26:50.854Z,26.9
2022-10-23T12:27:53.341Z,26.7
2022-10-23T12:28:55.543Z,26.8
2022-10-23T12:29:57.750Z,26.9
2022-10-23T12:31:00.280Z,26.8
2022-10-23T12:32:02.471Z,26.8
2022-10-23T12:33:04.959Z,26.9
2022-10-23T12:34:07.177Z,26.7
2022-10-23T12:35:09.402Z,26.8
2022-10-23T12:36:11.883Z,26.9
2022-10-23T12:37:14.064Z,26.9
2022-10-23T12:38:16.293Z,26.9
2022-10-23T12:39:18.806Z,26.8
2022-10-23T12:40:21.346Z,26.9
2022-10-23T12:41:23.541Z,26.9
2022-10-23T12:42:26.017Z,26.8
2022-10-23T12:43:28.212Z,26.8
2022-10-23T12:44:30.410Z,26.8
2022-10-23T12:45:32.616Z,26.9
2022-10-23T12:46:35.270Z,26.9
2022-10-23T12:48:40.321Z,26.8
2022-10-23T12:49:42.525Z,26.8
2022-10-23T12:50:44.988Z,26.8
2022-10-23T12:51:47.187Z,26.9
2022-10-23T12:52:49.666Z,26.7
2022-10-23T12:53:52.201Z,27
2022-10-23T12:54:54.704Z,26.8
2022-10-23T12:55:56.357Z,26.7
2022-10-23T12:56:58.368Z,26.7
2022-10-23T12:58:00.593Z,26.9
2022-10-23T12:59:03.091Z,26.6
2022-10-23T13:00:05.323Z,26.9
2022-10-23T13:01:07.737Z,26.9
2022-10-23T13:02:11.152Z,26.8
2022-10-23T13:03:13.964Z,26.8
2022-10-23T13:04:15.918Z,26.8
2022-10-23T13:05:19.490Z,26.6
2022-10-23T13:06:21.705Z,26.8
2022-10-23T13:07:24.190Z,26.8
2022-10-23T13:08:26.083Z,26.8
2022-10-23T13:09:28.319Z,26.9
2022-10-23T13:10:30.541Z,26.8
2022-10-23T13:11:32.213Z,26.7
2022-10-23T13:12:34.439Z,26.8
2022-10-23T13:13:36.744Z,26.8
2022-10-23T13:14:40.645Z,27
2022-10-23T13:15:44.216Z,26.7
2022-10-23T13:16:46.469Z,26.9
2022-10-23T13:17:48.994Z,26.8
2022-10-23T13:18:51.469Z,26.9
2022-10-23T13:19:53.944Z,26.8
2022-10-23T13:20:56.480Z,26.8
2022-10-23T13:21:59.060Z,26.6
2022-10-23T13:23:01.581Z,26.9
2022-10-23T13:24:03.494Z,26.8
2022-10-23T13:25:05.718Z,26.7
2022-10-23T13:26:08.219Z,26.9
2022-10-23T13:27:10.698Z,26.8
2022-10-23T13:28:13.166Z,26.9
2022-10-23T13:29:15.714Z,26.8
2022-10-23T13:30:18.441Z,26.7
2022-10-23T13:31:20.649Z,26.7
2022-10-23T13:32:23.156Z,26.8
2022-10-23T13:33:25.676Z,26.9
2022-10-23T13:34:27.922Z,26.8
2022-10-23T13:35:29.565Z,27
2022-10-23T13:36:32.053Z,27
2022-10-23T13:37:34.037Z,26.9
2022-10-23T13:38:36.501Z,26.8
2022-10-23T13:39:38.689Z,26.6
2022-10-23T13:40:41.203Z,26.7
2022-10-23T13:41:43.490Z,26.8
2022-10-23T13:42:45.725Z,26.8
2022-10-23T13:43:48.999Z,26.7
2022-10-23T13:44:51.488Z,26.9
2022-10-23T13:45:53.778Z,26.8
2022-10-23T13:46:56.308Z,26.9
2022-10-23T13:47:58.778Z,26.9
2022-10-23T13:49:01.307Z,26.7
2022-10-23T13:50:03.494Z,26.7
2022-10-23T13:51:05.417Z,26.8
2022-10-23T13:52:07.899Z,27
2022-10-23T13:53:10.373Z,26.8
2022-10-23T13:54:12.905Z,26.9
2022-10-23T13:55:15.835Z,26.8
2022-10-23T13:56:18.343Z,26.7
2022-10-23T13:57:20.826Z,26.8
2022-10-23T13:58:23.302Z,26.8
2022-10-23T13:59:25.499Z,26.9
2022-10-23T14:00:27.972Z,26.8
2022-10-23T14:01:30.588Z,26.8
2022-10-23T14:02:33.583Z,26.7
2022-10-23T14:03:36.245Z,26.8
2022-10-23T14:04:38.759Z,26.7
2022-10-23T14:05:41.064Z,26.9
2022-10-23T14:06:44.042Z,26.7
2022-10-23T14:07:46.690Z,26.8
2022-10-23T14:08:49.078Z,26.7
2022-10-23T14:09:51.598Z,26.8